Time;durP1;ratioP1;P1;durP2;ratioP2;P2;SDS_P1;SDS_P2;PMS_P1;PMS_P2;Temp;Humidity;BMP_temperature;BMP_pressure;BME280_temperature;BME280_humidity;BME280_pressure;Samples;Min_cycle;Max_cycle;Signal;HPM_P1;HPM_P2
2023/03/21 00:01:14;;;;;;;7.60;6.03;;;9.20;84.60;;;;;;5011874;28;20823;-67
2023/03/21 00:03:42;;;;;;;6.07;5.47;;;9.30;84.90;;;;;;5011753;28;20822;-66
2023/03/21 00:06:12;;;;;;;8.87;6.97;;;9.40;85.70;;;;;;5011813;28;20866;-68
2023/03/21 00:08:41;;;;;;;6.47;5.87;;;9.40;85.50;;;;;;5011370;28;20483;-69
2023/03/21 00:11:09;;;;;;;9.17;6.13;;;9.30;85.50;;;;;;5010065;28;20510;-66
2023/03/21 00:13:41;;;;;;;7.70;7.00;;;9.40;84.80;;;;;;5004679;28;20489;-68
2023/03/21 00:16:14;;;;;;;7.57;6.87;;;9.40;84.80;;;;;;5010815;28;20462;-67
2023/03/21 00:18:41;;;;;;;8.33;6.87;;;9.30;84.30;;;;;;5012433;28;20521;-67
2023/03/21 00:21:11;;;;;;;7.27;6.63;;;9.20;83.80;;;;;;5012258;28;20454;-66
2023/03/21 00:23:37;;;;;;;7.03;6.30;;;9.30;84.20;;;;;;5008382;28;20452;-67
2023/03/21 00:26:09;;;;;;;6.77;6.17;;;9.40;85.20;;;;;;5011814;28;20524;-67
2023/03/21 00:28:36;;;;;;;8.43;6.60;;;9.30;85.30;;;;;;5011468;28;21061;-68
2023/03/21 00:31:03;;;;;;;6.60;6.00;;;9.30;85.70;;;;;;5010726;28;20446;-67
2023/03/21 00:33:30;;;;;;;7.10;6.50;;;9.30;85.40;;;;;;5010586;28;20449;-67
2023/03/21 00:35:57;;;;;;;7.60;6.83;;;9.20;85.50;;;;;;4999416;28;20553;-67
2023/03/21 00:38:24;;;;;;;7.40;6.70;;;9.20;85.80;;;;;;4991335;28;20558;-67
2023/03/21 00:40:51;;;;;;;6.87;6.20;;;9.20;86.10;;;;;;4996573;28;20461;-67
2023/03/21 00:43:22;;;;;;;11.60;8.10;;;9.10;86.20;;;;;;5010677;28;20449;-67
2023/03/21 00:45:51;;;;;;;11.73;8.37;;;9.30;86.60;;;;;;5011120;28;20893;-67
2023/03/21 00:48:18;;;;;;;9.40;7.60;;;9.20;87.10;;;;;;5010973;28;20492;-67
2023/03/21 00:50:46;;;;;;;9.70;8.53;;;9.30;86.40;;;;;;4992602;28;20461;-67
2023/03/21 00:53:13;;;;;;;12.67;9.20;;;9.30;86.20;;;;;;4991177;28;20456;-67
2023/03/21 00:55:40;;;;;;;11.70;7.93;;;9.30;86.10;;;;;;4991103;28;20823;-67
2023/03/21 00:58:07;;;;;;;9.90;7.10;;;9.20;86.20;;;;;;4994133;28;20478;-67
2023/03/21 01:00:36;;;;;;;9.00;8.20;;;9.10;86.20;;;;;;4991952;28;20960;-67
2023/03/21 01:03:06;;;;;;;8.30;6.87;;;9.10;86.20;;;;;;4995738;28;20454;-67
2023/03/21 01:08:20;;;;;;;8.37;6.80;;;9.20;86.70;;;;;;5010313;28;20491;-67
2023/03/21 01:10:49;;;;;;;7.50;6.80;;;9.20;86.80;;;;;;5010655;28;20838;-67
2023/03/21 01:13:18;;;;;;;7.50;6.43;;;9.10;86.70;;;;;;5009867;28;20456;-67
2023/03/21 01:15:49;;;;;;;8.43;6.53;;;9.10;88.20;;;;;;4991979;28;20454;-67
2023/03/21 01:18:18;;;;;;;7.67;6.53;;;9.10;87.30;;;;;;4997568;28;20473;-67
2023/03/21 01:20:46;;;;;;;7.60;6.80;;;9.10;87.60;;;;;;5010586;28;20456;-67
2023/03/21 01:23:14;;;;;;;7.53;6.13;;;9.10;87.70;;;;;;5010218;28;20929;-66
2023/03/21 01:25:41;;;;;;;7.17;6.53;;;9.10;87.50;;;;;;5009995;28;20445;-67
2023/03/21 01:28:09;;;;;;;9.60;8.70;;;9.00;87.80;;;;;;5005249;28;20488;-67
2023/03/21 01:30:36;;;;;;;8.40;7.20;;;9.00;88.10;;;;;;5009038;28;20462;-66
2023/03/21 01:33:04;;;;;;;7.50;6.23;;;9.00;88.00;;;;;;5010240;28;20462;-66
2023/03/21 01:35:32;;;;;;;9.03;6.23;;;9.00;87.80;;;;;;5010035;28;20453;-66
2023/03/21 01:37:58;;;;;;;7.90;7.10;;;8.90;87.70;;;;;;4996177;28;20472;-66
2023/03/21 01:40:27;;;;;;;8.00;7.10;;;9.00;88.40;;;;;;4990585;28;20468;-65
2023/03/21 01:42:53;;;;;;;7.77;5.70;;;9.00;88.30;;;;;;4989886;28;20966;-67
2023/03/21 01:45:57;;;;;;;6.87;6.30;;;9.00;88.40;;;;;;4997392;28;20453;-67
2023/03/21 01:48:27;;;;;;;7.40;6.60;;;8.90;88.00;;;;;;5009893;28;20502;-67
2023/03/21 01:50:54;;;;;;;7.60;6.37;;;8.90;88.30;;;;;;5010247;28;20449;-67
2023/03/21 01:53:27;;;;;;;10.30;6.97;;;8.90;87.70;;;;;;5010097;28;20448;-67
2023/03/21 01:55:54;;;;;;;7.57;6.60;;;9.00;87.40;;;;;;5010149;28;20449;-67
2023/03/21 01:58:21;;;;;;;7.23;6.47;;;9.00;87.20;;;;;;4996685;28;20532;-67
2023/03/21 02:00:50;;;;;;;7.70;7.00;;;9.00;87.60;;;;;;4990040;28;20449;-67
2023/03/21 02:03:17;;;;;;;8.00;6.50;;;9.00;87.80;;;;;;5003573;28;20457;-67
2023/03/21 02:05:54;;;;;;;6.70;5.90;;;9.00;88.30;;;;;;5009974;28;20826;-67
2023/03/21 02:08:22;;;;;;;6.07;5.57;;;9.00;88.70;;;;;;5010215;28;20488;-66
2023/03/21 02:10:50;;;;;;;6.73;5.83;;;9.10;89.10;;;;;;5009320;28;20464;-66
2023/03/21 02:13:17;;;;;;;6.30;5.27;;;9.00;88.40;;;;;;5009976;28;20456;-67
2023/03/21 02:15:49;;;;;;;6.37;5.50;;;8.90;88.10;;;;;;5010256;28;20453;-66
2023/03/21 02:18:24;;;;;;;6.10;5.50;;;8.90;88.60;;;;;;5008330;28;20522;-67
2023/03/21 02:21:24;;;;;;;6.07;5.47;;;8.90;88.60;;;;;;5010256;28;20534;-67
2023/03/21 02:24:20;;;;;;;7.17;6.27;;;8.90;87.90;;;;;;5006896;28;20457;-68
2023/03/21 02:26:57;;;;;;;6.73;6.13;;;8.90;87.80;;;;;;4990106;28;20481;-67
2023/03/21 02:29:43;;;;;;;5.83;5.33;;;8.80;87.60;;;;;;5003925;28;20854;-67
2023/03/21 02:32:18;;;;;;;7.63;6.00;;;8.90;87.90;;;;;;5009658;28;20460;-67
2023/03/21 02:34:59;;;;;;;6.77;5.77;;;8.90;88.40;;;;;;5009491;28;20447;-67
2023/03/21 02:37:31;;;;;;;5.83;5.10;;;8.90;87.80;;;;;;5009684;28;20477;-65
2023/03/21 02:40:09;;;;;;;5.93;5.43;;;8.80;87.90;;;;;;5008982;28;20464;-67
2023/03/21 02:42:47;;;;;;;5.43;5.00;;;8.80;87.40;;;;;;4989650;28;20862;-66
2023/03/21 02:45:19;;;;;;;6.90;5.73;;;8.80;87.40;;;;;;4989909;28;20460;-68
2023/03/21 02:47:48;;;;;;;7.20;5.73;;;8.80;87.60;;;;;;4990057;28;20466;-68
2023/03/21 02:50:19;;;;;;;7.10;6.40;;;8.80;88.00;;;;;;4990064;28;20559;-68
2023/03/21 02:52:49;;;;;;;7.83;6.30;;;8.80;88.60;;;;;;4989552;28;20462;-67
2023/03/21 02:55:19;;;;;;;6.67;6.07;;;8.80;88.70;;;;;;4989877;28;20456;-67
2023/03/21 02:57:48;;;;;;;5.57;5.10;;;8.80;88.40;;;;;;4993653;28;20998;-67
2023/03/21 03:00:18;;;;;;;7.27;5.83;;;8.80;89.10;;;;;;4993917;28;20514;-65
2023/03/21 03:02:45;;;;;;;9.20;6.10;;;8.70;88.50;;;;;;4992773;28;20557;-68
2023/03/21 03:05:15;;;;;;;7.40;6.70;;;8.70;88.60;;;;;;5007343;28;20455;-67
2023/03/21 03:07:54;;;;;;;7.13;6.43;;;8.70;88.40;;;;;;5012797;28;20471;-67
2023/03/21 03:10:47;;;;;;;8.00;6.20;;;8.70;88.70;;;;;;5012818;28;20487;-67
2023/03/21 03:13:31;;;;;;;6.87;6.17;;;8.50;89.10;;;;;;4991949;28;20983;-67
2023/03/21 03:16:10;;;;;;;7.70;6.67;;;8.50;89.70;;;;;;5001065;28;20960;-67
2023/03/21 03:18:46;;;;;;;10.40;7.63;;;8.40;89.70;;;;;;5012691;28;20464;-66
2023/03/21 03:21:19;;;;;;;7.20;6.47;;;8.40;90.00;;;;;;5012616;28;20464;-67
2023/03/21 03:23:50;;;;;;;6.60;5.90;;;8.50;90.30;;;;;;5007266;28;20456;-67
2023/03/21 03:26:21;;;;;;;8.50;6.53;;;8.60;90.30;;;;;;4992744;28;20842;-66
2023/03/21 03:28:52;;;;;;;6.37;5.73;;;8.60;90.20;;;;;;4993368;28;20488;-68
2023/03/21 03:31:24;;;;;;;6.60;6.00;;;8.50;90.10;;;;;;4992923;28;20457;-66
2023/03/21 03:33:53;;;;;;;5.90;5.30;;;8.50;90.10;;;;;;4992742;28;20458;-67
2023/03/21 03:36:23;;;;;;;8.70;5.80;;;8.40;90.10;;;;;;4992880;28;20478;-67
2023/03/21 03:38:52;;;;;;;6.30;5.70;;;8.40;90.10;;;;;;5006032;28;20944;-67
2023/03/21 03:41:22;;;;;;;6.10;5.50;;;8.40;90.50;;;;;;5012270;28;20456;-66
2023/03/21 03:43:52;;;;;;;5.83;4.83;;;8.40;90.50;;;;;;5011832;28;20444;-67
2023/03/21 03:46:26;;;;;;;6.10;5.50;;;8.50;90.60;;;;;;5011403;28;20448;-67
2023/03/21 03:48:57;;;;;;;5.70;4.70;;;8.40;90.30;;;;;;4992426;28;20488;-68
2023/03/21 03:51:29;;;;;;;5.83;5.23;;;8.50;90.10;;;;;;4992612;28;20549;-67
2023/03/21 03:54:00;;;;;;;9.60;6.17;;;8.50;90.30;;;;;;4994748;28;20458;-67
2023/03/21 03:56:28;;;;;;;6.43;5.60;;;8.60;90.50;;;;;;5011933;28;20459;-67
2023/03/21 03:58:56;;;;;;;7.10;6.40;;;8.60;89.90;;;;;;4994100;28;20989;-67
2023/03/21 04:01:23;;;;;;;7.03;6.30;;;8.70;89.40;;;;;;4992130;28;20449;-67
2023/03/21 04:03:50;;;;;;;7.80;5.97;;;8.60;89.10;;;;;;4994052;28;20443;-67
2023/03/21 04:06:18;;;;;;;8.10;5.30;;;8.60;89.20;;;;;;5003855;28;20824;-67
2023/03/21 04:08:45;;;;;;;6.23;5.60;;;8.60;88.90;;;;;;4995365;28;20478;-66
2023/03/21 04:11:14;;;;;;;9.30;5.77;;;8.60;89.30;;;;;;5011978;28;20448;-65
2023/03/21 04:13:41;;;;;;;6.30;5.70;;;8.50;89.20;;;;;;5011545;28;21013;-67
2023/03/21 04:16:10;;;;;;;6.23;5.63;;;8.50;89.50;;;;;;5011989;28;20451;-67
2023/03/21 04:18:38;;;;;;;5.60;5.10;;;8.30;89.40;;;;;;5011209;28;20483;-67
2023/03/21 04:21:08;;;;;;;8.80;5.80;;;8.30;89.80;;;;;;5012079;28;20447;-66
2023/03/21 04:23:35;;;;;;;6.20;5.70;;;8.20;90.00;;;;;;5010722;28;20463;-66
2023/03/21 04:26:02;;;;;;;6.73;5.97;;;8.10;90.10;;;;;;5011751;28;20974;-67
2023/03/21 04:28:31;;;;;;;7.67;5.80;;;8.00;90.30;;;;;;5011303;28;20474;-67
2023/03/21 04:30:57;;;;;;;5.50;4.97;;;7.90;90.40;;;;;;5011346;28;20938;-67
2023/03/21 04:33:25;;;;;;;6.20;5.60;;;7.90;90.70;;;;;;5011097;28;20450;-67
2023/03/21 04:35:54;;;;;;;6.60;5.83;;;7.90;90.70;;;;;;5011116;28;20981;-66
2023/03/21 04:38:21;;;;;;;7.03;6.33;;;7.80;91.00;;;;;;5011303;28;20466;-66
2023/03/21 04:40:48;;;;;;;7.73;6.07;;;7.80;91.10;;;;;;4998364;28;20490;-68
2023/03/21 04:43:15;;;;;;;7.00;5.43;;;7.80;91.20;;;;;;5010876;28;20451;-68
2023/03/21 04:45:43;;;;;;;6.60;6.00;;;7.70;91.20;;;;;;5010952;28;21222;-68
2023/03/21 04:48:10;;;;;;;7.60;6.73;;;7.60;91.40;;;;;;5009586;28;20469;-68
2023/03/21 04:50:37;;;;;;;7.47;6.77;;;7.40;91.40;;;;;;4997745;28;21008;-67
2023/03/21 04:53:03;;;;;;;8.30;7.57;;;7.30;91.70;;;;;;4990848;28;20452;-66
2023/03/21 04:55:31;;;;;;;6.80;6.20;;;7.20;92.20;;;;;;4991645;28;20461;-66
2023/03/21 04:57:58;;;;;;;12.07;6.27;;;7.30;92.40;;;;;;4990935;28;20479;-67
2023/03/21 05:00:26;;;;;;;6.67;5.97;;;7.30;92.40;;;;;;4991433;28;20451;-68
2023/03/21 05:02:54;;;;;;;7.87;6.17;;;7.30;92.20;;;;;;4993349;28;20861;-68
2023/03/21 05:05:20;;;;;;;7.67;6.83;;;7.50;92.20;;;;;;4991089;28;20463;-68
2023/03/21 05:07:47;;;;;;;8.13;6.80;;;7.60;92.00;;;;;;4991473;28;20479;-67
2023/03/21 05:10:14;;;;;;;7.53;6.83;;;7.50;92.00;;;;;;4990759;28;20482;-67
2023/03/21 05:12:41;;;;;;;10.30;6.60;;;7.50;92.20;;;;;;4990791;28;20896;-65
2023/03/21 05:15:09;;;;;;;7.37;6.67;;;7.40;92.40;;;;;;4990907;28;20459;-67
2023/03/21 05:17:36;;;;;;;7.87;7.07;;;7.60;92.60;;;;;;5002518;28;20465;-67
2023/03/21 05:20:08;;;;;;;10.97;6.70;;;7.60;92.40;;;;;;5009603;28;20458;-66
2023/03/21 05:22:39;;;;;;;7.13;6.43;;;7.50;92.30;;;;;;5010188;28;20496;-67
2023/03/21 05:25:07;;;;;;;8.30;7.40;;;7.60;92.50;;;;;;5010527;28;20474;-67
2023/03/21 05:27:34;;;;;;;8.87;7.20;;;7.60;92.40;;;;;;5010499;28;20483;-67
2023/03/21 05:30:03;;;;;;;7.70;7.00;;;7.70;92.40;;;;;;5010578;28;20569;-67
2023/03/21 05:32:30;;;;;;;7.07;6.37;;;7.70;91.80;;;;;;5007424;28;20457;-69
2023/03/21 05:34:57;;;;;;;7.40;6.43;;;7.70;91.80;;;;;;4990730;28;20454;-68
2023/03/21 05:37:25;;;;;;;11.80;10.53;;;7.80;91.90;;;;;;4990478;28;20820;-67
2023/03/21 05:39:52;;;;;;;9.80;8.03;;;7.80;91.50;;;;;;4990808;28;20489;-66
2023/03/21 05:42:19;;;;;;;9.43;8.40;;;7.90;91.60;;;;;;4990585;28;20457;-67
2023/03/21 05:44:46;;;;;;;18.40;10.60;;;7.90;91.40;;;;;;4990334;28;20452;-66
2023/03/21 05:47:13;;;;;;;11.57;9.70;;;7.90;91.40;;;;;;4990858;28;20475;-67
2023/03/21 05:49:40;;;;;;;10.20;8.97;;;7.90;91.40;;;;;;4991660;28;20492;-68
2023/03/21 05:52:07;;;;;;;9.33;8.10;;;7.80;91.50;;;;;;5010147;28;21024;-66
2023/03/21 05:54:36;;;;;;;10.40;8.57;;;7.80;91.80;;;;;;4998040;28;20456;-67
2023/03/21 05:57:03;;;;;;;7.93;7.13;;;7.80;92.00;;;;;;4992684;28;20482;-67
2023/03/21 05:59:30;;;;;;;7.50;6.80;;;8.00;92.10;;;;;;5008648;28;20439;-67
2023/03/21 06:01:57;;;;;;;6.90;6.20;;;8.00;91.90;;;;;;4998836;28;20451;-67
2023/03/21 06:04:23;;;;;;;9.60;8.63;;;8.00;91.50;;;;;;4993509;28;20450;-67
2023/03/21 06:06:52;;;;;;;11.43;9.40;;;8.00;91.50;;;;;;4997006;28;20474;-68
2023/03/21 06:09:19;;;;;;;13.43;8.63;;;8.10;91.60;;;;;;4995096;28;20450;-67
2023/03/21 06:11:50;;;;;;;8.57;7.57;;;8.20;91.70;;;;;;4999742;28;20459;-67
2023/03/21 06:14:17;;;;;;;8.20;7.50;;;8.40;91.50;;;;;;5002695;28;20443;-68
2023/03/21 06:16:44;;;;;;;7.47;6.77;;;8.40;91.20;;;;;;5004675;28;20479;-67
2023/03/21 06:19:11;;;;;;;7.50;6.80;;;8.60;91.40;;;;;;4996224;28;20447;-69
2023/03/21 06:21:38;;;;;;;7.33;6.60;;;8.70;91.20;;;;;;5008225;28;20881;-68
2023/03/21 06:24:05;;;;;;;8.70;7.57;;;8.70;90.90;;;;;;5009074;28;20455;-67
2023/03/21 06:26:32;;;;;;;7.23;6.60;;;8.80;90.00;;;;;;5008365;28;20487;-67
2023/03/21 06:29:00;;;;;;;7.40;6.70;;;8.90;89.80;;;;;;4990157;28;20453;-68
2023/03/21 06:31:27;;;;;;;6.83;6.13;;;8.90;90.00;;;;;;4990866;28;20489;-67
2023/03/21 06:33:54;;;;;;;7.30;6.60;;;8.90;89.50;;;;;;4993517;28;20450;-67
2023/03/21 06:36:21;;;;;;;8.53;6.30;;;8.90;89.10;;;;;;4993683;28;20446;-67
2023/03/21 06:38:47;;;;;;;6.30;5.70;;;8.80;88.90;;;;;;4993913;28;20539;-69
2023/03/21 06:41:15;;;;;;;7.00;6.40;;;8.90;89.00;;;;;;4998982;28;20511;-68
2023/03/21 06:43:42;;;;;;;7.10;6.40;;;8.90;89.30;;;;;;5012955;28;20533;-68
2023/03/21 06:46:10;;;;;;;7.50;6.70;;;8.90;88.60;;;;;;5013165;28;20456;-68
2023/03/21 06:48:43;;;;;;;8.07;7.23;;;8.80;88.80;;;;;;5012938;28;20515;-67
2023/03/21 06:51:10;;;;;;;9.47;7.20;;;8.80;87.90;;;;;;5013488;28;20897;-67
2023/03/21 06:53:37;;;;;;;7.63;6.97;;;8.80;88.20;;;;;;5012646;28;20938;-68
2023/03/21 06:56:05;;;;;;;8.73;7.00;;;8.80;88.50;;;;;;5000832;28;20464;-69
2023/03/21 06:58:32;;;;;;;10.10;7.87;;;8.90;89.40;;;;;;4993404;28;20483;-68
2023/03/21 07:00:59;;;;;;;9.87;7.27;;;8.90;89.00;;;;;;4993414;28;20457;-68
2023/03/21 07:03:27;;;;;;;7.80;7.00;;;8.90;89.10;;;;;;4994733;28;20445;-68
2023/03/21 07:05:54;;;;;;;7.00;6.30;;;8.90;89.30;;;;;;5006659;28;20480;-68
2023/03/21 07:08:22;;;;;;;6.80;6.13;;;8.90;89.60;;;;;;4993232;28;20560;-68
2023/03/21 07:10:48;;;;;;;10.40;7.77;;;8.90;89.90;;;;;;4993204;28;20853;-68
2023/03/21 07:13:16;;;;;;;10.57;7.33;;;8.90;89.90;;;;;;4992807;28;20476;-68
2023/03/21 07:15:43;;;;;;;7.40;6.67;;;8.90;90.30;;;;;;4992936;28;20453;-68
2023/03/21 07:18:10;;;;;;;11.23;7.53;;;8.80;90.10;;;;;;4993344;28;20495;-68
2023/03/21 07:20:38;;;;;;;6.97;6.30;;;8.90;90.10;;;;;;4994288;28;20457;-67
2023/03/21 07:23:06;;;;;;;9.93;7.20;;;8.90;89.70;;;;;;4992743;28;20462;-69
2023/03/21 07:25:33;;;;;;;8.40;6.93;;;9.00;90.00;;;;;;4992927;28;20819;-68
2023/03/21 07:28:00;;;;;;;7.87;7.07;;;9.10;89.80;;;;;;4992726;28;20473;-69
2023/03/21 07:30:27;;;;;;;6.17;5.57;;;9.30;89.60;;;;;;4992918;28;20532;-67
2023/03/21 07:32:54;;;;;;;7.83;6.40;;;9.30;87.90;;;;;;4998993;28;20463;-68
2023/03/21 07:35:21;;;;;;;6.97;5.87;;;9.50;86.40;;;;;;5012475;28;20449;-67
2023/03/21 07:37:49;;;;;;;6.87;6.20;;;9.70;85.80;;;;;;5012007;28;20472;-68
2023/03/21 07:40:16;;;;;;;6.13;5.63;;;9.80;85.10;;;;;;5011907;28;20469;-68
2023/03/21 07:42:43;;;;;;;6.13;5.60;;;10.00;80.10;;;;;;5010939;28;20468;-68
2023/03/21 07:45:13;;;;;;;5.73;5.10;;;10.10;79.20;;;;;;5012340;28;20454;-69
2023/03/21 07:47:40;;;;;;;5.37;4.87;;;10.30;79.00;;;;;;4999356;28;20475;-68
2023/03/21 07:50:08;;;;;;;5.40;4.50;;;10.50;79.10;;;;;;4992475;28;20483;-68
2023/03/21 07:52:35;;;;;;;6.63;5.00;;;10.60;75.10;;;;;;4992162;28;20817;-68
2023/03/21 07:55:03;;;;;;;5.73;5.07;;;10.70;75.00;;;;;;4992246;28;20447;-68
2023/03/21 07:57:30;;;;;;;7.00;6.37;;;10.80;75.50;;;;;;4998102;28;20496;-66
2023/03/21 07:59:56;;;;;;;5.53;5.03;;;11.00;74.30;;;;;;5011834;28;20946;-67
2023/03/21 08:02:23;;;;;;;5.90;5.40;;;11.00;74.20;;;;;;5012184;28;20840;-68
2023/03/21 08:04:51;;;;;;;4.77;4.30;;;11.10;72.60;;;;;;5012281;28;20445;-67
2023/03/21 08:07:18;;;;;;;6.60;5.27;;;11.20;72.10;;;;;;5012048;28;20482;-68
2023/03/21 08:09:44;;;;;;;5.33;4.83;;;11.30;72.60;;;;;;5011757;28;20447;-68
2023/03/21 08:12:12;;;;;;;6.80;5.63;;;11.40;70.60;;;;;;5000832;28;20855;-67
2023/03/21 08:14:39;;;;;;;5.07;4.67;;;11.50;70.50;;;;;;4992098;28;20454;-67
2023/03/21 08:17:08;;;;;;;5.80;4.33;;;11.60;70.70;;;;;;4992128;28;20471;-67
2023/03/21 08:19:36;;;;;;;6.40;5.50;;;11.70;69.40;;;;;;4992084;28;20504;-67
2023/03/21 08:22:04;;;;;;;6.33;5.80;;;11.80;66.50;;;;;;4991734;28;21081;-67
2023/03/21 08:24:32;;;;;;;5.83;4.90;;;11.90;67.70;;;;;;4991868;28;21207;-66
2023/03/21 08:26:59;;;;;;;6.10;5.23;;;12.10;64.60;;;;;;4992031;28;20829;-67
2023/03/21 08:29:28;;;;;;;6.23;4.90;;;12.10;66.70;;;;;;4993123;28;20849;-67
2023/03/21 08:31:54;;;;;;;7.70;4.50;;;12.20;65.90;;;;;;4991265;28;20491;-67
2023/03/21 08:34:22;;;;;;;5.73;5.13;;;12.30;61.70;;;;;;5002910;28;20448;-67
2023/03/21 08:36:49;;;;;;;5.20;4.70;;;12.40;63.40;;;;;;5006410;28;20483;-68
2023/03/21 08:39:16;;;;;;;5.63;5.07;;;12.60;62.00;;;;;;4999692;28;20445;-68
2023/03/21 08:41:43;;;;;;;12.13;6.20;;;12.80;62.20;;;;;;4999243;28;20467;-68
2023/03/21 08:44:10;;;;;;;7.17;5.17;;;13.00;60.00;;;;;;5000218;28;20451;-68
2023/03/21 08:46:38;;;;;;;7.07;4.20;;;13.20;60.70;;;;;;5006495;28;20480;-68
2023/03/21 08:49:05;;;;;;;5.10;4.40;;;13.40;61.60;;;;;;5005706;28;20469;-68
2023/03/21 08:51:32;;;;;;;5.97;4.10;;;13.60;59.80;;;;;;4999731;28;20992;-68
2023/03/21 08:53:59;;;;;;;4.90;4.37;;;13.80;60.40;;;;;;4999331;28;20444;-68
2023/03/21 08:56:26;;;;;;;4.53;4.13;;;13.90;58.20;;;;;;4994943;28;20446;-68
2023/03/21 08:58:53;;;;;;;4.63;3.60;;;14.00;56.30;;;;;;5006268;28;20452;-68
2023/03/21 09:01:19;;;;;;;5.00;4.20;;;14.20;57.50;;;;;;4999486;28;20437;-68
2023/03/21 09:03:47;;;;;;;4.50;3.20;;;14.60;56.90;;;;;;5003877;28;20474;-68
2023/03/21 09:06:14;;;;;;;4.60;3.50;;;14.90;55.40;;;;;;5004727;28;20454;-68
2023/03/21 09:08:42;;;;;;;5.93;2.97;;;15.20;53.90;;;;;;5000581;28;20472;-68
2023/03/21 09:11:09;;;;;;;3.93;3.47;;;15.30;51.70;;;;;;4997718;28;20543;-68
2023/03/21 09:13:36;;;;;;;6.93;3.43;;;15.70;52.80;;;;;;5006528;28;20825;-68
2023/03/21 09:16:03;;;;;;;3.07;2.67;;;15.80;51.30;;;;;;4994614;28;20473;-66
2023/03/21 09:18:44;;;;;;;3.33;3.03;;;16.00;51.10;;;;;;5002588;28;20472;-68
2023/03/21 09:21:13;;;;;;;3.70;3.00;;;16.40;51.50;;;;;;5002241;28;20877;-68
2023/03/21 09:23:40;;;;;;;4.10;2.40;;;17.00;49.10;;;;;;5010219;28;20925;-67
2023/03/21 09:26:08;;;;;;;3.20;2.90;;;17.40;47.60;;;;;;5010551;28;20454;-67
2023/03/21 09:28:36;;;;;;;3.83;3.33;;;17.70;46.00;;;;;;4994156;28;20557;-69
2023/03/21 09:31:03;;;;;;;4.50;3.33;;;17.50;47.10;;;;;;4990675;28;20483;-68
2023/03/21 09:33:30;;;;;;;4.60;4.20;;;17.30;46.00;;;;;;4990482;28;20455;-69
2023/03/21 09:35:59;;;;;;;3.67;3.37;;;17.20;46.30;;;;;;4990934;28;20454;-68
2023/03/21 09:38:29;;;;;;;3.57;3.20;;;17.10;46.60;;;;;;4999734;28;20462;-68
2023/03/21 09:41:10;;;;;;;3.20;2.90;;;17.30;46.00;;;;;;4999493;28;20453;-68
2023/03/21 09:43:48;;;;;;;2.83;2.50;;;17.30;46.80;;;;;;4999928;28;20984;-68
2023/03/21 09:46:24;;;;;;;3.40;2.60;;;17.40;46.30;;;;;;5000288;28;20497;-68
2023/03/21 09:48:56;;;;;;;3.20;2.93;;;17.40;44.60;;;;;;4999640;28;20455;-68
2023/03/21 09:51:27;;;;;;;3.80;2.90;;;17.50;44.40;;;;;;4998520;28;20532;-68
2023/03/21 09:53:57;;;;;;;3.13;2.43;;;17.90;46.00;;;;;;5000045;28;20450;-68
2023/03/21 09:56:24;;;;;;;5.50;3.20;;;18.10;44.70;;;;;;4999632;28;20814;-67
2023/03/21 09:58:55;;;;;;;3.50;2.77;;;18.50;43.00;;;;;;5000785;28;20831;-68
2023/03/21 10:01:27;;;;;;;3.10;2.40;;;18.80;42.80;;;;;;5005931;28;20445;-68
2023/03/21 10:03:55;;;;;;;3.30;3.00;;;19.10;41.80;;;;;;5010403;28;20473;-68
2023/03/21 10:06:27;;;;;;;4.90;2.97;;;19.60;42.80;;;;;;5009699;28;20457;-68
2023/03/21 10:08:58;;;;;;;3.57;2.60;;;20.10;41.10;;;;;;5010521;28;20446;-69
2023/03/21 10:11:28;;;;;;;2.77;2.00;;;20.30;40.00;;;;;;5010363;28;20477;-68
2023/03/21 10:13:58;;;;;;;2.63;1.87;;;20.20;39.70;;;;;;5010116;28;20449;-68
2023/03/21 10:16:28;;;;;;;2.30;2.10;;;20.00;38.80;;;;;;5011356;28;20449;-68
2023/03/21 10:18:56;;;;;;;2.77;2.10;;;19.50;41.50;;;;;;5013464;28;20457;-68
2023/03/21 10:21:25;;;;;;;2.63;2.43;;;19.20;43.20;;;;;;5013888;28;20438;-69
2023/03/21 10:23:55;;;;;;;4.80;2.60;;;19.50;42.50;;;;;;5013855;28;20446;-67
2023/03/21 10:26:26;;;;;;;2.27;2.07;;;19.50;39.40;;;;;;5001217;28;20445;-68
2023/03/21 10:28:55;;;;;;;3.40;2.40;;;19.30;41.00;;;;;;5007681;28;20454;-67
2023/03/21 10:31:25;;;;;;;2.60;2.40;;;19.60;44.00;;;;;;5009686;28;20477;-67
2023/03/21 10:33:53;;;;;;;4.20;2.60;;;20.00;41.10;;;;;;5009691;28;20446;-68
2023/03/21 10:36:24;;;;;;;5.70;2.73;;;20.10;40.70;;;;;;5009556;28;20783;-66
2023/03/21 10:38:56;;;;;;;3.37;3.07;;;20.00;39.30;;;;;;5009893;28;20500;-68
2023/03/21 10:41:23;;;;;;;4.57;2.53;;;20.00;40.00;;;;;;5008988;28;20964;-67
2023/03/21 10:44:07;;;;;;;3.10;2.53;;;19.50;39.80;;;;;;4992544;28;20457;-67
2023/03/21 10:46:34;;;;;;;3.00;2.70;;;19.20;41.20;;;;;;4989870;28;20796;-68
2023/03/21 10:49:01;;;;;;;3.37;2.97;;;19.10;43.10;;;;;;4990095;28;20956;-68
2023/03/21 10:51:33;;;;;;;3.60;2.70;;;19.30;42.50;;;;;;4989951;28;20475;-69
2023/03/21 10:54:07;;;;;;;4.17;3.23;;;19.40;42.40;;;;;;5006535;28;20898;-69
2023/03/21 10:56:38;;;;;;;3.67;2.73;;;19.80;39.30;;;;;;5007759;28;20453;-67
2023/03/21 10:59:07;;;;;;;6.80;3.40;;;19.40;40.90;;;;;;4996333;28;20517;-67
2023/03/21 11:01:37;;;;;;;3.37;3.00;;;20.00;40.90;;;;;;5000798;28;20453;-68
2023/03/21 11:04:08;;;;;;;2.50;2.30;;;19.70;40.30;;;;;;4991225;28;20454;-67
2023/03/21 11:06:40;;;;;;;3.57;2.50;;;18.90;40.50;;;;;;4997272;28;20435;-68
2023/03/21 11:09:13;;;;;;;6.10;3.10;;;18.50;41.30;;;;;;5003660;28;20458;-66
2023/03/21 11:11:42;;;;;;;3.77;2.93;;;18.70;41.40;;;;;;4994114;28;20485;-67
2023/03/21 11:14:35;;;;;;;2.93;2.73;;;18.90;41.10;;;;;;5001885;28;20855;-66
2023/03/21 11:17:07;;;;;;;3.97;3.57;;;19.00;41.20;;;;;;4996280;28;20481;-68
2023/03/21 11:19:36;;;;;;;4.47;3.27;;;18.90;43.40;;;;;;5008726;28;20446;-66
2023/03/21 11:22:06;;;;;;;4.00;2.83;;;19.20;43.30;;;;;;4999877;28;20449;-67
2023/03/21 11:24:36;;;;;;;3.40;3.10;;;19.40;41.80;;;;;;5001620;28;20458;-67
2023/03/21 11:27:06;;;;;;;4.97;3.37;;;19.30;39.90;;;;;;5008811;28;20466;-67
2023/03/21 11:29:35;;;;;;;3.63;2.83;;;19.10;41.00;;;;;;5009686;28;20442;-68
2023/03/21 11:32:10;;;;;;;3.90;2.93;;;19.10;41.50;;;;;;4999533;28;20477;-67
2023/03/21 11:34:47;;;;;;;3.80;3.10;;;19.00;41.40;;;;;;5000914;28;20443;-68
2023/03/21 11:37:21;;;;;;;2.97;2.67;;;19.10;42.10;;;;;;5008753;28;20971;-67
2023/03/21 11:39:55;;;;;;;4.00;3.13;;;19.30;41.60;;;;;;4998078;28;20449;-67
2023/03/21 11:42:28;;;;;;;5.53;3.10;;;19.00;42.70;;;;;;5004942;28;20440;-66
2023/03/21 11:45:04;;;;;;;5.23;3.93;;;18.90;43.20;;;;;;4998695;28;20477;-66
2023/03/21 11:47:31;;;;;;;4.53;3.23;;;18.60;42.70;;;;;;4996317;28;20494;-67
2023/03/21 11:49:58;;;;;;;6.67;4.30;;;18.20;43.60;;;;;;4993891;28;20481;-67
2023/03/21 11:52:36;;;;;;;4.20;3.30;;;17.80;44.30;;;;;;5004463;28;20493;-67
2023/03/21 11:55:34;;;;;;;4.67;3.77;;;17.50;45.30;;;;;;5008834;28;21261;-67
2023/03/21 11:58:17;;;;;;;3.50;3.17;;;17.40;45.00;;;;;;5004414;28;20493;-66
2023/03/21 12:00:53;;;;;;;3.80;3.50;;;17.40;45.80;;;;;;4995984;28;20435;-67
2023/03/21 12:03:56;;;;;;;5.33;3.33;;;17.60;44.50;;;;;;4996857;28;20924;-67
2023/03/21 12:06:29;;;;;;;4.10;3.20;;;17.60;44.30;;;;;;4999684;28;20485;-67
2023/03/21 12:09:19;;;;;;;8.17;3.30;;;17.50;44.70;;;;;;5001999;28;20492;-67
2023/03/21 12:11:59;;;;;;;10.27;4.07;;;17.50;44.30;;;;;;5001628;28;20488;-68
2023/03/21 12:14:36;;;;;;;5.93;3.97;;;17.10;44.80;;;;;;5011629;28;20449;-68
2023/03/21 12:17:10;;;;;;;3.73;3.40;;;17.30;45.50;;;;;;5011625;28;20477;-66
2023/03/21 12:20:06;;;;;;;4.40;4.00;;;17.30;44.90;;;;;;5011613;28;20452;-67
2023/03/21 12:22:41;;;;;;;5.73;3.73;;;17.30;45.40;;;;;;5010849;28;20477;-68
2023/03/21 12:25:13;;;;;;;5.03;3.80;;;17.10;46.00;;;;;;5011713;28;20453;-68
2023/03/21 12:27:51;;;;;;;4.37;3.97;;;17.10;46.10;;;;;;5011259;28;20466;-68
2023/03/21 12:30:32;;;;;;;3.43;3.10;;;17.30;45.70;;;;;;5011113;28;20453;-68
2023/03/21 12:33:13;;;;;;;5.23;3.47;;;17.40;44.10;;;;;;5011227;28;20568;-68
2023/03/21 12:35:52;;;;;;;5.13;3.83;;;17.50;44.10;;;;;;5011621;28;20453;-67
2023/03/21 12:38:23;;;;;;;5.93;3.13;;;17.60;44.50;;;;;;5003925;28;20493;-68
2023/03/21 12:41:02;;;;;;;4.10;3.70;;;17.80;44.10;;;;;;4991545;28;20461;-66
2023/03/21 12:43:47;;;;;;;5.07;3.70;;;18.00;44.10;;;;;;4992760;28;20937;-68
2023/03/21 12:46:20;;;;;;;4.60;3.40;;;18.00;45.30;;;;;;4991382;28;20971;-68
2023/03/21 12:48:50;;;;;;;3.80;3.50;;;18.10;43.60;;;;;;4990923;28;20447;-69
2023/03/21 12:51:20;;;;;;;6.30;3.50;;;18.20;47.00;;;;;;4991384;28;20461;-68
2023/03/21 12:54:00;;;;;;;5.50;3.57;;;18.60;45.20;;;;;;4991506;28;20984;-67
2023/03/21 12:56:30;;;;;;;6.07;3.77;;;18.50;44.20;;;;;;4991603;28;20454;-68
2023/03/21 12:59:04;;;;;;;6.13;3.00;;;18.70;42.90;;;;;;4991442;28;20831;-68
2023/03/21 13:01:35;;;;;;;6.73;3.40;;;18.50;42.10;;;;;;4991350;28;20539;-67
2023/03/21 13:04:26;;;;;;;3.67;3.03;;;18.60;44.00;;;;;;4991128;28;21262;-65
2023/03/21 13:06:55;;;;;;;5.90;3.00;;;18.70;44.40;;;;;;4991526;28;20848;-68
2023/03/21 13:09:31;;;;;;;5.60;3.50;;;18.60;45.10;;;;;;4992544;28;20451;-67
2023/03/21 13:12:05;;;;;;;4.20;3.43;;;18.00;44.60;;;;;;4991422;28;20856;-67